createdAt,value
2023-09-16T00:02:40.266Z,45.70
2023-09-16T00:05:30.047Z,45.50
2023-09-16T00:08:18.583Z,46.00
2023-09-16T00:11:10.404Z,45.90
2023-09-16T00:13:58.904Z,45.90
2023-09-16T00:16:47.340Z,45.90
2023-09-16T00:19:35.830Z,45.70
2023-09-16T00:22:25.693Z,45.90
2023-09-16T00:25:15.134Z,46.20
2023-09-16T00:28:07.539Z,45.90
2023-09-16T00:30:56.157Z,46.10
2023-09-16T00:33:44.791Z,46.00
2023-09-16T00:36:33.179Z,45.70
2023-09-16T00:39:23.426Z,45.90
2023-09-16T00:42:11.964Z,45.80
2023-09-16T00:45:00.676Z,45.60
2023-09-16T00:47:49.269Z,45.70
2023-09-16T00:50:37.759Z,45.80
2023-09-16T00:53:27.993Z,45.60
2023-09-16T00:56:18.007Z,45.50
2023-09-16T00:59:06.541Z,45.70
2023-09-16T01:01:57.169Z,45.60
2023-09-16T01:04:46.099Z,45.60
2023-09-16T01:07:34.533Z,46.00
2023-09-16T01:10:23.630Z,45.90
2023-09-16T01:13:13.692Z,46.00
2023-09-16T01:16:10.183Z,45.90
2023-09-16T01:19:04.747Z,45.80
2023-09-16T01:21:53.869Z,45.80
2023-09-16T01:24:42.326Z,45.90
2023-09-16T01:27:32.271Z,46.00
2023-09-16T01:30:20.856Z,46.30
2023-09-16T01:33:18.022Z,46.00
2023-09-16T01:36:12.463Z,46.00
2023-09-16T01:39:05.212Z,46.10
2023-09-16T01:41:56.669Z,46.10
2023-09-16T01:44:46.505Z,45.90
2023-09-16T01:47:35.460Z,45.80
2023-09-16T01:50:23.959Z,46.10
2023-09-16T01:53:13.676Z,46.10
2023-09-16T01:56:04.383Z,46.20
2023-09-16T01:58:53.058Z,46.20
2023-09-16T02:01:44.356Z,46.20
2023-09-16T02:04:32.822Z,46.30
2023-09-16T02:07:21.206Z,46.30
2023-09-16T02:10:11.044Z,46.40
2023-09-16T02:12:59.508Z,46.10
2023-09-16T02:15:48.022Z,46.40
2023-09-16T02:18:37.938Z,46.50
2023-09-16T02:21:26.346Z,46.40
2023-09-16T02:24:14.820Z,46.40
2023-09-16T02:27:03.294Z,46.30
2023-09-16T02:29:51.819Z,46.40
2023-09-16T02:32:40.342Z,46.40
2023-09-16T02:35:30.945Z,46.30
2023-09-16T02:38:19.780Z,46.10
2023-09-16T02:41:08.276Z,46.20
2023-09-16T02:43:56.564Z,46.10
2023-09-16T02:46:45.128Z,46.20
2023-09-16T02:49:34.341Z,46.00
2023-09-16T02:52:24.167Z,46.30
2023-09-16T02:55:12.623Z,46.20
2023-09-16T02:58:01.718Z,46.40
2023-09-16T03:00:50.231Z,46.00
2023-09-16T03:03:39.108Z,46.20
2023-09-16T03:06:28.490Z,46.20
2023-09-16T03:09:20.660Z,46.10
2023-09-16T03:12:09.489Z,46.30
2023-09-16T03:14:58.078Z,46.20
2023-09-16T03:18:01.859Z,46.20
2023-09-16T03:20:54.698Z,46.20
2023-09-16T03:23:43.413Z,46.20
2023-09-16T03:26:33.298Z,46.10
2023-09-16T03:29:21.642Z,46.20
2023-09-16T03:32:10.012Z,46.30
2023-09-16T03:34:58.610Z,46.20
2023-09-16T03:37:46.995Z,46.20
2023-09-16T03:40:35.364Z,46.40
2023-09-16T03:43:25.073Z,45.70
2023-09-16T03:46:13.559Z,45.60
2023-09-16T03:49:01.989Z,45.50
2023-09-16T03:51:50.589Z,45.60
2023-09-16T03:54:39.170Z,45.60
2023-09-16T03:57:27.605Z,45.70
2023-09-16T04:00:17.756Z,45.70
2023-09-16T04:03:06.729Z,45.60
2023-09-16T04:05:57.948Z,45.70
2023-09-16T04:08:46.473Z,45.70
2023-09-16T04:11:35.020Z,45.70
2023-09-16T04:14:24.760Z,45.80
2023-09-16T04:17:14.722Z,45.90
2023-09-16T04:20:07.184Z,46.00
2023-09-16T04:22:55.706Z,45.90
2023-09-16T04:25:44.181Z,46.00
2023-09-16T04:28:32.734Z,45.90
2023-09-16T04:31:21.264Z,46.00
2023-09-16T04:34:11.234Z,46.00
2023-09-16T04:37:00.399Z,46.20
2023-09-16T04:39:48.879Z,46.30
2023-09-16T04:42:38.320Z,46.40
2023-09-16T04:45:27.052Z,46.50
2023-09-16T04:48:16.237Z,46.60
2023-09-16T04:51:06.335Z,46.70
2023-09-16T04:53:56.312Z,46.80
2023-09-16T04:56:44.766Z,46.80
2023-09-16T04:59:33.957Z,46.80
2023-09-16T05:02:22.313Z,46.80
2023-09-16T05:05:12.799Z,46.90
2023-09-16T05:08:02.621Z,47.00
2023-09-16T05:10:55.587Z,47.10
2023-09-16T05:13:44.295Z,47.00
2023-09-16T05:16:33.195Z,47.10
2023-09-16T05:19:21.754Z,47.10
2023-09-16T05:22:10.241Z,47.10
2023-09-16T05:25:00.139Z,47.10
2023-09-16T05:27:48.663Z,47.10
2023-09-16T05:30:37.090Z,47.00
2023-09-16T05:33:26.274Z,46.90
2023-09-16T05:36:14.779Z,46.70
2023-09-16T05:39:03.362Z,46.70
2023-09-16T05:41:54.416Z,46.70
2023-09-16T05:44:42.754Z,46.50
2023-09-16T05:47:31.565Z,46.30
2023-09-16T05:50:20.035Z,46.20
2023-09-16T05:53:08.388Z,46.00
2023-09-16T05:55:56.891Z,45.80
2023-09-16T05:58:46.627Z,45.60
2023-09-16T06:01:35.410Z,45.40
2023-09-16T06:04:23.868Z,45.20
2023-09-16T06:07:12.414Z,45.10
2023-09-16T06:10:01.094Z,44.90
2023-09-16T06:12:49.762Z,44.70
2023-09-16T06:15:39.549Z,44.40
2023-09-16T06:18:28.131Z,44.10
2023-09-16T06:21:17.655Z,43.80
2023-09-16T06:24:06.953Z,43.60
2023-09-16T06:26:55.467Z,43.60
2023-09-16T06:29:44.633Z,43.40
2023-09-16T06:32:34.525Z,43.10
2023-09-16T06:35:23.377Z,42.90
2023-09-16T06:38:11.828Z,42.70
2023-09-16T06:41:00.399Z,42.30
2023-09-16T06:43:48.852Z,42.10
2023-09-16T06:46:37.285Z,41.90
2023-09-16T06:49:28.387Z,41.70
2023-09-16T06:52:16.895Z,41.30
2023-09-16T06:55:06.398Z,41.20
2023-09-16T06:57:55.462Z,40.80
2023-09-16T07:00:43.961Z,40.30
2023-09-16T07:03:32.451Z,39.80
2023-09-16T07:06:22.408Z,39.10
2023-09-16T07:09:11.962Z,39.70
2023-09-16T07:12:00.625Z,40.30
2023-09-16T07:14:49.401Z,40.70
2023-09-16T07:17:37.992Z,41.30
2023-09-16T07:20:27.042Z,41.80
2023-09-16T07:23:16.853Z,41.90
2023-09-16T07:26:05.537Z,41.90
2023-09-16T07:28:53.877Z,41.90
2023-09-16T07:31:42.344Z,41.50
2023-09-16T07:34:30.849Z,41.30
2023-09-16T07:37:19.482Z,41.20
2023-09-16T07:40:10.620Z,40.80
2023-09-16T07:42:58.975Z,40.70
2023-09-16T07:45:47.474Z,40.60
2023-09-16T07:48:36.138Z,40.40
2023-09-16T07:51:24.851Z,40.30
2023-09-16T07:54:13.240Z,40.20
2023-09-16T07:57:02.988Z,39.90
2023-09-16T07:59:51.408Z,39.70
2023-09-16T08:02:40.137Z,39.30
2023-09-16T08:05:28.896Z,39.10
2023-09-16T08:08:17.440Z,39.20
2023-09-16T08:11:05.927Z,38.60
2023-09-16T08:13:55.957Z,38.50
2023-09-16T08:16:44.674Z,37.70
2023-09-16T08:19:33.612Z,37.40
2023-09-16T08:22:22.083Z,37.10
2023-09-16T08:25:10.736Z,36.90
2023-09-16T08:27:59.356Z,36.60
2023-09-16T08:30:49.161Z,36.80
2023-09-16T08:33:37.545Z,36.30
2023-09-16T08:36:25.898Z,36.10
2023-09-16T08:39:14.323Z,36.00
2023-09-16T08:42:09.461Z,36.10
2023-09-16T08:45:00.603Z,36.00
2023-09-16T08:47:56.663Z,36.00
2023-09-16T08:50:46.066Z,35.50
2023-09-16T08:53:37.495Z,35.30
2023-09-16T08:56:27.589Z,35.50
2023-09-16T08:59:16.136Z,35.90
2023-09-16T09:02:04.686Z,35.90
2023-09-16T09:04:54.710Z,35.60
2023-09-16T09:07:43.735Z,35.30
2023-09-16T09:10:32.295Z,34.50
2023-09-16T09:13:22.174Z,34.30
2023-09-16T09:16:12.418Z,33.50
2023-09-16T09:19:01.071Z,33.50
2023-09-16T09:21:53.005Z,33.20
2023-09-16T09:24:41.526Z,32.30
2023-09-16T09:27:29.980Z,32.10
2023-09-16T09:30:21.294Z,31.50
2023-09-16T09:33:15.818Z,31.30
2023-09-16T09:36:15.255Z,31.20
2023-09-16T09:39:10.296Z,30.20
2023-09-16T09:41:58.778Z,30.30
2023-09-16T09:44:47.139Z,30.50
2023-09-16T09:47:36.599Z,30.10
2023-09-16T09:50:25.230Z,30.20
2023-09-16T09:53:13.832Z,30.00
2023-09-16T09:56:03.685Z,29.40
2023-09-16T09:58:53.163Z,29.20
2023-09-16T10:01:42.573Z,29.20
2023-09-16T10:04:32.056Z,29.10
2023-09-16T10:07:20.639Z,28.80
2023-09-16T10:10:15.103Z,28.60
2023-09-16T10:13:05.568Z,28.20
2023-09-16T10:15:56.160Z,28.20
2023-09-16T10:18:44.798Z,27.70
2023-09-16T10:21:33.823Z,27.60
2023-09-16T10:24:23.100Z,27.60
2023-09-16T10:27:16.418Z,27.30
2023-09-16T10:30:08.229Z,27.10
2023-09-16T10:32:57.279Z,26.80
2023-09-16T10:35:45.899Z,26.50
2023-09-16T10:38:36.361Z,26.60
2023-09-16T10:41:26.512Z,26.40
2023-09-16T10:44:16.556Z,26.40
2023-09-16T10:47:08.502Z,26.20
2023-09-16T10:49:57.216Z,25.90
2023-09-16T10:52:53.209Z,25.80
2023-09-16T10:55:50.411Z,25.80
2023-09-16T10:58:48.851Z,25.40
2023-09-16T11:01:42.305Z,25.40
2023-09-16T11:04:33.320Z,25.50
2023-09-16T11:07:22.250Z,25.30
2023-09-16T11:10:13.273Z,25.40
2023-09-16T11:13:03.566Z,25.40
2023-09-16T11:15:52.744Z,25.50
2023-09-16T11:18:43.968Z,25.50
2023-09-16T11:21:33.920Z,25.50
2023-09-16T11:24:22.713Z,25.40
2023-09-16T11:27:11.239Z,25.50
2023-09-16T11:30:00.169Z,25.50
2023-09-16T11:33:10.676Z,25.40
2023-09-16T11:36:10.363Z,25.30
2023-09-16T11:39:19.184Z,25.30
2023-09-16T11:42:09.146Z,25.30
2023-09-16T11:44:57.620Z,25.30
2023-09-16T11:47:50.079Z,25.30
2023-09-16T11:50:39.836Z,24.90
2023-09-16T11:53:28.326Z,25.10
2023-09-16T11:56:19.330Z,25.20
2023-09-16T11:59:08.114Z,24.90
2023-09-16T12:01:57.203Z,24.90
2023-09-16T12:04:47.172Z,25.00
2023-09-16T12:07:38.191Z,24.90
2023-09-16T12:10:26.720Z,25.20
2023-09-16T12:13:28.240Z,25.00
2023-09-16T12:16:17.403Z,24.80
2023-09-16T12:19:06.292Z,25.10
2023-09-16T12:21:56.187Z,25.20
2023-09-16T12:24:44.840Z,25.00
2023-09-16T12:27:33.348Z,24.90
2023-09-16T12:30:23.222Z,25.40
2023-09-16T12:33:11.872Z,25.30
2023-09-16T12:36:00.998Z,25.20
2023-09-16T12:38:50.669Z,25.40
2023-09-16T12:41:39.710Z,25.40
2023-09-16T12:44:28.899Z,25.30
2023-09-16T12:47:20.624Z,25.30
2023-09-16T12:50:09.807Z,25.40
2023-09-16T12:52:58.503Z,25.40
2023-09-16T12:55:49.893Z,25.50
2023-09-16T12:58:43.276Z,25.80
2023-09-16T13:01:32.293Z,25.90
2023-09-16T13:04:22.419Z,25.80
2023-09-16T13:07:12.031Z,25.80
2023-09-16T13:10:00.598Z,25.90
2023-09-16T13:12:50.024Z,25.90
2023-09-16T13:15:43.584Z,25.80
2023-09-16T13:18:32.004Z,25.90
2023-09-16T13:21:30.813Z,25.80
2023-09-16T13:24:19.562Z,25.90
2023-09-16T13:27:10.604Z,26.40
2023-09-16T13:30:01.951Z,26.50
2023-09-16T13:32:53.966Z,26.50
2023-09-16T13:35:44.456Z,26.40
2023-09-16T13:38:34.375Z,26.50
2023-09-16T13:41:25.077Z,26.60
2023-09-16T13:44:13.546Z,26.60
2023-09-16T13:47:02.023Z,26.70
2023-09-16T13:49:50.525Z,26.70
2023-09-16T13:52:39.833Z,26.70
2023-09-16T13:55:31.640Z,27.00
2023-09-16T13:58:20.791Z,27.00
2023-09-16T14:01:09.317Z,27.20
2023-09-16T14:03:58.491Z,27.30
2023-09-16T14:06:47.790Z,27.40
2023-09-16T14:09:36.267Z,27.20
2023-09-16T14:12:26.094Z,27.30
2023-09-16T14:15:14.567Z,27.50
2023-09-16T14:18:04.598Z,27.70
2023-09-16T14:20:53.319Z,27.80
2023-09-16T14:23:41.738Z,27.80
2023-09-16T14:26:30.541Z,28.00
2023-09-16T14:29:20.220Z,28.00
2023-09-16T14:32:08.601Z,28.10
2023-09-16T14:34:57.118Z,28.30
2023-09-16T14:37:48.124Z,28.40
2023-09-16T14:40:38.393Z,28.50
2023-09-16T14:43:27.672Z,28.50
2023-09-16T14:46:17.731Z,28.50
2023-09-16T14:49:06.544Z,28.60
2023-09-16T14:51:56.580Z,28.80
2023-09-16T14:54:45.117Z,29.30
2023-09-16T14:57:33.633Z,29.60
2023-09-16T15:00:22.974Z,29.80
2023-09-16T15:03:12.885Z,30.00
2023-09-16T15:06:02.006Z,30.20
2023-09-16T15:08:50.689Z,30.40
2023-09-16T15:11:40.386Z,30.50
2023-09-16T15:14:28.888Z,30.70
2023-09-16T15:17:17.401Z,31.00
2023-09-16T15:20:08.196Z,31.30
2023-09-16T15:22:57.078Z,31.60
2023-09-16T15:25:45.596Z,32.00
2023-09-16T15:28:34.080Z,32.30
2023-09-16T15:31:22.633Z,32.70
2023-09-16T15:34:11.102Z,33.00
2023-09-16T15:37:01.083Z,33.20
2023-09-16T15:39:49.584Z,33.50
2023-09-16T15:42:38.121Z,33.60
2023-09-16T15:45:26.557Z,33.70
2023-09-16T15:48:15.096Z,34.00
2023-09-16T15:51:03.558Z,34.40
2023-09-16T15:53:53.444Z,34.60
2023-09-16T15:56:42.746Z,34.40
2023-09-16T15:59:31.322Z,34.50
2023-09-16T16:02:19.993Z,34.60
2023-09-16T16:05:09.680Z,34.70
2023-09-16T16:07:58.148Z,34.70
2023-09-16T16:10:49.113Z,34.80
2023-09-16T16:13:37.550Z,35.00
2023-09-16T16:16:26.999Z,35.10
2023-09-16T16:19:15.509Z,35.40
2023-09-16T16:22:04.463Z,35.70
2023-09-16T16:24:52.975Z,36.10
2023-09-16T16:27:42.832Z,36.30
2023-09-16T16:30:31.202Z,36.60
2023-09-16T16:33:19.641Z,36.90
2023-09-16T16:36:08.067Z,37.30
2023-09-16T16:38:57.266Z,37.60
2023-09-16T16:41:45.622Z,38.20
2023-09-16T16:44:35.640Z,38.70
2023-09-16T16:47:24.077Z,39.20
2023-09-16T16:50:12.836Z,39.50
2023-09-16T16:53:01.303Z,39.90
2023-09-16T16:55:49.700Z,40.10
2023-09-16T16:58:40.045Z,40.10
2023-09-16T17:01:29.866Z,40.30
2023-09-16T17:04:19.727Z,40.60
2023-09-16T17:07:08.266Z,40.80
2023-09-16T17:09:56.751Z,40.90
2023-09-16T17:12:45.155Z,41.10
2023-09-16T17:15:33.568Z,41.30
2023-09-16T17:18:23.417Z,41.60
2023-09-16T17:21:11.817Z,41.90
2023-09-16T17:24:00.528Z,42.00
2023-09-16T17:26:48.975Z,42.00
2023-09-16T17:29:37.475Z,42.20
2023-09-16T17:32:26.480Z,42.30
2023-09-16T17:35:18.010Z,42.50
2023-09-16T17:38:06.625Z,42.50
2023-09-16T17:40:55.118Z,42.70
2023-09-16T17:43:43.582Z,43.00
2023-09-16T17:46:32.127Z,42.90
2023-09-16T17:49:20.827Z,42.80
2023-09-16T17:52:10.905Z,43.00
2023-09-16T17:54:59.431Z,43.00
2023-09-16T17:57:48.001Z,43.20
2023-09-16T18:00:36.520Z,43.30
2023-09-16T18:03:25.040Z,43.50
2023-09-16T18:06:14.043Z,43.70
2023-09-16T18:09:05.258Z,43.80
2023-09-16T18:11:53.900Z,43.80
2023-09-16T18:14:42.556Z,43.90
2023-09-16T18:17:31.197Z,43.70
2023-09-16T18:20:20.432Z,43.70
2023-09-16T18:23:10.612Z,43.80
2023-09-16T18:26:01.164Z,44.10
2023-09-16T18:28:49.775Z,44.40
2023-09-16T18:31:38.719Z,44.40
2023-09-16T18:34:27.561Z,44.50
2023-09-16T18:37:16.972Z,44.70
2023-09-16T18:40:06.242Z,44.80
2023-09-16T18:42:57.770Z,45.00
2023-09-16T18:45:47.160Z,45.00
2023-09-16T18:48:36.699Z,44.90
2023-09-16T18:51:27.425Z,45.10
2023-09-16T18:54:15.917Z,45.20
2023-09-16T18:57:05.448Z,45.30
2023-09-16T18:59:55.502Z,45.40
2023-09-16T19:02:44.216Z,45.40
2023-09-16T19:05:33.118Z,45.50
2023-09-16T19:08:21.988Z,45.30
2023-09-16T19:11:11.814Z,45.40
2023-09-16T19:14:00.382Z,45.40
2023-09-16T19:16:50.319Z,45.30
2023-09-16T19:19:38.878Z,45.40
2023-09-16T19:22:27.411Z,45.40
2023-09-16T19:25:16.215Z,45.60
2023-09-16T19:28:05.260Z,45.70
2023-09-16T19:30:54.012Z,45.80
2023-09-16T19:33:43.894Z,45.90
2023-09-16T19:36:32.782Z,45.70
2023-09-16T19:39:21.429Z,46.00
2023-09-16T19:42:09.951Z,45.90
2023-09-16T19:44:59.004Z,46.00
2023-09-16T19:47:47.766Z,46.10
2023-09-16T19:50:38.035Z,46.10
2023-09-16T19:53:26.831Z,46.20
2023-09-16T19:56:15.311Z,46.40
2023-09-16T19:59:04.194Z,46.40
2023-09-16T20:01:52.796Z,46.50
2023-09-16T20:04:42.415Z,46.60
2023-09-16T20:07:32.250Z,46.70
2023-09-16T20:10:20.846Z,46.80
2023-09-16T20:13:09.406Z,47.10
2023-09-16T20:15:57.912Z,47.20
2023-09-16T20:18:46.564Z,47.40
2023-09-16T20:21:34.970Z,47.50
2023-09-16T20:24:25.380Z,47.70
2023-09-16T20:27:14.586Z,48.00
2023-09-16T20:30:03.248Z,48.10
2023-09-16T20:32:51.751Z,48.20
2023-09-16T20:35:40.175Z,48.20
2023-09-16T20:38:28.745Z,48.50
2023-09-16T20:41:18.587Z,48.50
2023-09-16T20:44:07.198Z,48.60
2023-09-16T20:46:55.701Z,48.80
2023-09-16T20:49:44.369Z,49.10
2023-09-16T20:52:33.816Z,49.30
2023-09-16T20:55:22.687Z,49.40
2023-09-16T20:58:12.573Z,49.50
2023-09-16T21:01:01.160Z,49.80
2023-09-16T21:03:50.065Z,49.70
2023-09-16T21:06:39.050Z,49.90
2023-09-16T21:09:27.455Z,50.20
2023-09-16T21:12:16.398Z,50.50
2023-09-16T21:15:07.310Z,50.70
2023-09-16T21:17:55.754Z,50.90
2023-09-16T21:20:44.677Z,51.00
2023-09-16T21:23:33.208Z,51.00
2023-09-16T21:26:21.620Z,51.20
2023-09-16T21:29:10.001Z,51.40
2023-09-16T21:32:02.736Z,51.50
2023-09-16T21:34:53.393Z,51.60
2023-09-16T21:37:41.924Z,51.80
2023-09-16T21:40:30.537Z,51.80
2023-09-16T21:43:20.326Z,51.70
2023-09-16T21:46:08.913Z,51.50
2023-09-16T21:48:58.734Z,51.20
2023-09-16T21:51:47.225Z,50.50
2023-09-16T21:54:35.648Z,49.90
2023-09-16T21:57:24.063Z,49.40
2023-09-16T22:00:24.463Z,48.90
2023-09-16T22:03:13.639Z,48.50
2023-09-16T22:06:05.238Z,48.20
2023-09-16T22:08:53.884Z,48.00
2023-09-16T22:11:42.844Z,47.70
2023-09-16T22:14:31.162Z,47.60
2023-09-16T22:17:19.766Z,47.40
2023-09-16T22:20:10.843Z,47.20
2023-09-16T22:23:01.130Z,47.20
2023-09-16T22:25:50.435Z,47.10
2023-09-16T22:28:38.963Z,47.00
2023-09-16T22:31:27.621Z,46.90
2023-09-16T22:34:16.161Z,46.90
2023-09-16T22:37:04.826Z,46.80
2023-09-16T22:39:57.642Z,46.70
2023-09-16T22:42:46.533Z,46.60
2023-09-16T22:45:34.986Z,46.60
2023-09-16T22:48:23.995Z,46.60
2023-09-16T22:51:12.404Z,46.60
2023-09-16T22:54:00.933Z,46.50
2023-09-16T22:56:50.867Z,46.50
2023-09-16T22:59:39.237Z,46.50
2023-09-16T23:02:28.119Z,46.50
2023-09-16T23:05:16.671Z,46.50
2023-09-16T23:08:05.318Z,46.40
2023-09-16T23:10:53.701Z,46.40
2023-09-16T23:13:43.514Z,46.40
2023-09-16T23:16:32.092Z,46.50
2023-09-16T23:19:20.712Z,46.50
2023-09-16T23:22:09.636Z,46.40
2023-09-16T23:24:58.247Z,46.30
2023-09-16T23:27:46.556Z,46.30
2023-09-16T23:30:36.337Z,46.40
2023-09-16T23:33:24.911Z,46.40
2023-09-16T23:36:13.422Z,46.40
2023-09-16T23:39:06.357Z,46.30
2023-09-16T23:41:54.900Z,46.30
2023-09-16T23:44:43.433Z,46.40
2023-09-16T23:47:33.349Z,46.40
2023-09-16T23:50:21.956Z,46.40
2023-09-16T23:53:11.185Z,46.50
2023-09-16T23:55:59.629Z,46.30
2023-09-16T23:58:48.227Z,46.40
